sensor_id;sensor_type;location;lat;lon;timestamp;pressure;altitude;pressure_sealevel;temperature;humidity
56070;BME280;41944;52.078;-0.058;2023-07-31T00:01:45;100446.86;;;19.14;95.16
56070;BME280;41944;52.078;-0.058;2023-07-31T00:04:11;100444.47;;;19.12;95.97
56070;BME280;41944;52.078;-0.058;2023-07-31T00:06:38;100435.39;;;19.18;96.29
56070;BME280;41944;52.078;-0.058;2023-07-31T00:09:05;100435.53;;;19.23;95.02
56070;BME280;41944;52.078;-0.058;2023-07-31T00:11:32;100431.49;;;19.20;95.37
56070;BME280;41944;52.078;-0.058;2023-07-31T00:13:59;100433.39;;;19.23;94.84
56070;BME280;41944;52.078;-0.058;2023-07-31T00:16:26;100429.27;;;19.20;95.95
56070;BME280;41944;52.078;-0.058;2023-07-31T00:18:53;100422.91;;;19.22;95.93
56070;BME280;41944;52.078;-0.058;2023-07-31T00:21:20;100420.89;;;19.15;96.13
56070;BME280;41944;52.078;-0.058;2023-07-31T00:23:47;100425.48;;;19.24;95.43
56070;BME280;41944;52.078;-0.058;2023-07-31T00:26:14;100420.57;;;19.09;96.54
56070;BME280;41944;52.078;-0.058;2023-07-31T00:28:41;100418.82;;;19.20;95.44
56070;BME280;41944;52.078;-0.058;2023-07-31T00:31:07;100416.93;;;19.17;95.63
56070;BME280;41944;52.078;-0.058;2023-07-31T00:33:35;100423.81;;;19.18;96.44
56070;BME280;41944;52.078;-0.058;2023-07-31T00:36:02;100421.30;;;19.17;96.40
56070;BME280;41944;52.078;-0.058;2023-07-31T00:38:30;100416.58;;;19.17;96.18
56070;BME280;41944;52.078;-0.058;2023-07-31T00:40:57;100407.74;;;19.12;96.56
56070;BME280;41944;52.078;-0.058;2023-07-31T00:43:25;100411.17;;;19.20;96.70
56070;BME280;41944;52.078;-0.058;2023-07-31T00:45:52;100407.93;;;19.23;96.44
56070;BME280;41944;52.078;-0.058;2023-07-31T00:48:19;100410.35;;;19.26;95.99
56070;BME280;41944;52.078;-0.058;2023-07-31T00:50:46;100408.71;;;19.11;96.77
56070;BME280;41944;52.078;-0.058;2023-07-31T00:53:13;100398.22;;;19.22;96.85
56070;BME280;41944;52.078;-0.058;2023-07-31T00:55:40;100394.06;;;19.27;96.20
56070;BME280;41944;52.078;-0.058;2023-07-31T00:58:08;100394.91;;;19.32;96.47
56070;BME280;41944;52.078;-0.058;2023-07-31T01:00:34;100391.45;;;19.23;96.96
56070;BME280;41944;52.078;-0.058;2023-07-31T01:03:01;100389.14;;;19.19;97.97
56070;BME280;41944;52.078;-0.058;2023-07-31T01:05:36;100392.96;;;19.32;97.05
56070;BME280;41944;52.078;-0.058;2023-07-31T01:08:12;100385.19;;;19.34;96.80
56070;BME280;41944;52.078;-0.058;2023-07-31T01:10:52;100378.59;;;19.31;96.98
56070;BME280;41944;52.078;-0.058;2023-07-31T01:13:21;100376.21;;;19.24;97.34
56070;BME280;41944;52.078;-0.058;2023-07-31T01:15:49;100372.60;;;19.22;97.43
56070;BME280;41944;52.078;-0.058;2023-07-31T01:18:16;100371.97;;;19.27;97.53
56070;BME280;41944;52.078;-0.058;2023-07-31T01:20:47;100367.09;;;19.40;96.50
56070;BME280;41944;52.078;-0.058;2023-07-31T01:23:35;100362.58;;;19.35;97.07
56070;BME280;41944;52.078;-0.058;2023-07-31T01:26:12;100358.69;;;19.31;97.10
56070;BME280;41944;52.078;-0.058;2023-07-31T01:28:53;100352.58;;;19.33;96.91
56070;BME280;41944;52.078;-0.058;2023-07-31T01:31:23;100347.39;;;19.39;96.83
56070;BME280;41944;52.078;-0.058;2023-07-31T01:33:53;100345.47;;;19.27;97.44
56070;BME280;41944;52.078;-0.058;2023-07-31T01:36:22;100342.18;;;19.34;97.21
56070;BME280;41944;52.078;-0.058;2023-07-31T01:38:49;100338.94;;;19.48;96.26
56070;BME280;41944;52.078;-0.058;2023-07-31T01:41:17;100333.82;;;19.42;96.54
56070;BME280;41944;52.078;-0.058;2023-07-31T01:43:44;100331.97;;;19.47;96.65
56070;BME280;41944;52.078;-0.058;2023-07-31T01:46:11;100329.16;;;19.39;96.98
56070;BME280;41944;52.078;-0.058;2023-07-31T01:48:38;100319.42;;;19.37;97.57
56070;BME280;41944;52.078;-0.058;2023-07-31T01:51:05;100316.44;;;19.33;97.55
56070;BME280;41944;52.078;-0.058;2023-07-31T01:53:32;100311.74;;;19.43;97.22
56070;BME280;41944;52.078;-0.058;2023-07-31T01:55:59;100305.13;;;19.44;97.13
56070;BME280;41944;52.078;-0.058;2023-07-31T01:58:27;100304.58;;;19.39;97.32
56070;BME280;41944;52.078;-0.058;2023-07-31T02:00:54;100293.67;;;19.40;97.72
56070;BME280;41944;52.078;-0.058;2023-07-31T02:03:22;100284.38;;;19.41;97.75
56070;BME280;41944;52.078;-0.058;2023-07-31T02:05:49;100291.25;;;19.38;97.81
56070;BME280;41944;52.078;-0.058;2023-07-31T02:08:17;100282.53;;;19.42;97.77
56070;BME280;41944;52.078;-0.058;2023-07-31T02:10:44;100279.26;;;19.54;97.08
56070;BME280;41944;52.078;-0.058;2023-07-31T02:13:10;100276.76;;;19.48;97.86
56070;BME280;41944;52.078;-0.058;2023-07-31T02:15:37;100278.75;;;19.53;97.22
56070;BME280;41944;52.078;-0.058;2023-07-31T02:18:05;100275.65;;;19.55;97.32
56070;BME280;41944;52.078;-0.058;2023-07-31T02:20:34;100273.50;;;19.60;96.67
56070;BME280;41944;52.078;-0.058;2023-07-31T02:23:01;100271.95;;;19.46;97.92
56070;BME280;41944;52.078;-0.058;2023-07-31T02:25:28;100269.57;;;19.44;98.43
56070;BME280;41944;52.078;-0.058;2023-07-31T02:27:55;100269.10;;;19.45;98.59
56070;BME280;41944;52.078;-0.058;2023-07-31T02:30:23;100263.54;;;19.48;98.20
56070;BME280;41944;52.078;-0.058;2023-07-31T02:32:49;100264.22;;;19.44;98.56
56070;BME280;41944;52.078;-0.058;2023-07-31T02:35:16;100264.85;;;19.43;98.87
56070;BME280;41944;52.078;-0.058;2023-07-31T02:37:43;100257.36;;;19.43;99.00
56070;BME280;41944;52.078;-0.058;2023-07-31T02:40:11;100251.46;;;19.49;98.33
56070;BME280;41944;52.078;-0.058;2023-07-31T02:42:38;100248.80;;;19.35;99.10
56070;BME280;41944;52.078;-0.058;2023-07-31T02:45:06;100244.00;;;19.46;98.56
56070;BME280;41944;52.078;-0.058;2023-07-31T02:47:33;100239.74;;;19.56;98.01
56070;BME280;41944;52.078;-0.058;2023-07-31T02:50:00;100239.26;;;19.32;99.72
56070;BME280;41944;52.078;-0.058;2023-07-31T02:52:27;100236.94;;;19.45;98.96
56070;BME280;41944;52.078;-0.058;2023-07-31T02:54:54;100236.77;;;19.46;98.83
56070;BME280;41944;52.078;-0.058;2023-07-31T02:57:21;100235.49;;;19.51;98.60
56070;BME280;41944;52.078;-0.058;2023-07-31T02:59:48;100229.33;;;19.45;99.13
56070;BME280;41944;52.078;-0.058;2023-07-31T03:02:15;100233.67;;;19.41;99.76
56070;BME280;41944;52.078;-0.058;2023-07-31T03:04:42;100234.51;;;19.42;99.32
56070;BME280;41944;52.078;-0.058;2023-07-31T03:07:09;100233.49;;;19.37;100.00
56070;BME280;41944;52.078;-0.058;2023-07-31T03:09:35;100236.67;;;19.49;98.82
56070;BME280;41944;52.078;-0.058;2023-07-31T03:12:03;100239.27;;;19.53;98.73
56070;BME280;41944;52.078;-0.058;2023-07-31T03:14:30;100238.75;;;19.65;98.03
56070;BME280;41944;52.078;-0.058;2023-07-31T03:16:57;100237.80;;;19.58;98.49
56070;BME280;41944;52.078;-0.058;2023-07-31T03:19:25;100239.55;;;19.40;100.00
56070;BME280;41944;52.078;-0.058;2023-07-31T03:21:52;100237.68;;;19.48;100.00
56070;BME280;41944;52.078;-0.058;2023-07-31T03:24:19;100229.93;;;19.36;100.00
56070;BME280;41944;52.078;-0.058;2023-07-31T03:26:46;100231.27;;;19.41;100.00
56070;BME280;41944;52.078;-0.058;2023-07-31T03:29:13;100231.51;;;19.54;99.65
56070;BME280;41944;52.078;-0.058;2023-07-31T03:31:40;100223.40;;;19.54;99.75
56070;BME280;41944;52.078;-0.058;2023-07-31T03:34:07;100226.99;;;19.49;100.00
56070;BME280;41944;52.078;-0.058;2023-07-31T03:36:34;100222.63;;;19.58;99.83
56070;BME280;41944;52.078;-0.058;2023-07-31T03:39:02;100219.11;;;19.58;99.69
56070;BME280;41944;52.078;-0.058;2023-07-31T03:41:29;100218.51;;;19.53;100.00
56070;BME280;41944;52.078;-0.058;2023-07-31T03:43:56;100223.77;;;19.47;100.00
56070;BME280;41944;52.078;-0.058;2023-07-31T03:46:24;100218.49;;;19.56;100.00
56070;BME280;41944;52.078;-0.058;2023-07-31T03:48:51;100222.34;;;19.56;100.00
56070;BME280;41944;52.078;-0.058;2023-07-31T03:51:18;100212.73;;;19.57;100.00
56070;BME280;41944;52.078;-0.058;2023-07-31T03:53:45;100214.10;;;19.61;100.00
56070;BME280;41944;52.078;-0.058;2023-07-31T03:56:13;100217.47;;;19.62;100.00
56070;BME280;41944;52.078;-0.058;2023-07-31T03:58:40;100220.97;;;19.45;100.00
56070;BME280;41944;52.078;-0.058;2023-07-31T04:01:07;100214.75;;;19.46;100.00
56070;BME280;41944;52.078;-0.058;2023-07-31T04:03:34;100208.87;;;19.66;99.67
56070;BME280;41944;52.078;-0.058;2023-07-31T04:06:01;100201.03;;;19.60;100.00
56070;BME280;41944;52.078;-0.058;2023-07-31T04:08:27;100197.80;;;19.49;100.00
56070;BME280;41944;52.078;-0.058;2023-07-31T04:10:55;100190.88;;;19.61;100.00
56070;BME280;41944;52.078;-0.058;2023-07-31T04:13:22;100196.27;;;19.63;100.00
56070;BME280;41944;52.078;-0.058;2023-07-31T04:15:49;100200.51;;;19.55;100.00
56070;BME280;41944;52.078;-0.058;2023-07-31T04:18:17;100193.16;;;19.66;100.00
56070;BME280;41944;52.078;-0.058;2023-07-31T04:20:43;100197.13;;;19.55;100.00
56070;BME280;41944;52.078;-0.058;2023-07-31T04:23:10;100198.09;;;19.60;100.00
56070;BME280;41944;52.078;-0.058;2023-07-31T04:25:37;100201.00;;;19.71;99.49
56070;BME280;41944;52.078;-0.058;2023-07-31T04:28:04;100195.73;;;19.73;99.60
56070;BME280;41944;52.078;-0.058;2023-07-31T04:30:31;100191.81;;;19.67;100.00
56070;BME280;41944;52.078;-0.058;2023-07-31T04:32:58;100183.06;;;19.78;99.27
56070;BME280;41944;52.078;-0.058;2023-07-31T04:35:25;100181.74;;;19.66;100.00
56070;BME280;41944;52.078;-0.058;2023-07-31T04:37:52;100179.78;;;19.84;99.31
56070;BME280;41944;52.078;-0.058;2023-07-31T04:40:19;100175.34;;;19.77;99.61
56070;BME280;41944;52.078;-0.058;2023-07-31T04:42:46;100174.37;;;19.81;99.29
56070;BME280;41944;52.078;-0.058;2023-07-31T04:45:14;100176.28;;;19.77;99.64
56070;BME280;41944;52.078;-0.058;2023-07-31T04:47:41;100179.08;;;19.75;100.00
56070;BME280;41944;52.078;-0.058;2023-07-31T04:50:09;100183.61;;;19.81;99.61
56070;BME280;41944;52.078;-0.058;2023-07-31T04:52:36;100184.00;;;19.85;98.59
56070;BME280;41944;52.078;-0.058;2023-07-31T04:55:03;100187.28;;;19.83;98.88
56070;BME280;41944;52.078;-0.058;2023-07-31T04:57:30;100189.09;;;19.83;98.76
56070;BME280;41944;52.078;-0.058;2023-07-31T04:59:58;100192.47;;;19.72;99.42
56070;BME280;41944;52.078;-0.058;2023-07-31T05:02:25;100189.17;;;19.75;99.06
56070;BME280;41944;52.078;-0.058;2023-07-31T05:04:52;100186.94;;;19.85;98.49
56070;BME280;41944;52.078;-0.058;2023-07-31T05:07:18;100186.75;;;19.76;99.26
56070;BME280;41944;52.078;-0.058;2023-07-31T05:09:45;100188.87;;;19.77;98.76
56070;BME280;41944;52.078;-0.058;2023-07-31T05:12:12;100186.53;;;19.83;98.46
56070;BME280;41944;52.078;-0.058;2023-07-31T05:14:39;100189.51;;;19.96;97.56
56070;BME280;41944;52.078;-0.058;2023-07-31T05:17:06;100189.21;;;19.95;97.50
56070;BME280;41944;52.078;-0.058;2023-07-31T05:19:33;100193.24;;;19.96;98.06
56070;BME280;41944;52.078;-0.058;2023-07-31T05:21:59;100188.42;;;19.92;98.50
56070;BME280;41944;52.078;-0.058;2023-07-31T05:24:26;100187.49;;;19.88;98.17
56070;BME280;41944;52.078;-0.058;2023-07-31T05:26:54;100185.72;;;19.88;98.06
56070;BME280;41944;52.078;-0.058;2023-07-31T05:29:21;100188.41;;;19.83;98.58
56070;BME280;41944;52.078;-0.058;2023-07-31T05:31:48;100191.64;;;19.88;98.74
56070;BME280;41944;52.078;-0.058;2023-07-31T05:34:15;100197.64;;;19.91;98.21
56070;BME280;41944;52.078;-0.058;2023-07-31T05:36:41;100201.70;;;19.86;98.63
56070;BME280;41944;52.078;-0.058;2023-07-31T05:39:08;100205.24;;;19.97;97.81
56070;BME280;41944;52.078;-0.058;2023-07-31T05:41:35;100199.12;;;19.92;98.50
56070;BME280;41944;52.078;-0.058;2023-07-31T05:44:03;100194.13;;;20.00;97.70
56070;BME280;41944;52.078;-0.058;2023-07-31T05:46:30;100190.07;;;20.12;96.33
56070;BME280;41944;52.078;-0.058;2023-07-31T05:48:58;100189.45;;;20.08;95.70
56070;BME280;41944;52.078;-0.058;2023-07-31T05:51:25;100184.09;;;20.05;95.68
56070;BME280;41944;52.078;-0.058;2023-07-31T05:53:51;100179.85;;;20.09;95.59
56070;BME280;41944;52.078;-0.058;2023-07-31T05:56:18;100174.83;;;20.17;94.10
56070;BME280;41944;52.078;-0.058;2023-07-31T05:58:45;100172.07;;;20.14;94.10
56070;BME280;41944;52.078;-0.058;2023-07-31T06:01:12;100169.79;;;20.12;93.97
56070;BME280;41944;52.078;-0.058;2023-07-31T06:03:39;100166.18;;;20.09;93.09
56070;BME280;41944;52.078;-0.058;2023-07-31T06:06:05;100165.79;;;20.09;93.15
56070;BME280;41944;52.078;-0.058;2023-07-31T06:08:32;100165.66;;;20.03;93.55
56070;BME280;41944;52.078;-0.058;2023-07-31T06:10:59;100167.55;;;20.07;93.50
56070;BME280;41944;52.078;-0.058;2023-07-31T06:13:26;100168.76;;;20.05;93.51
56070;BME280;41944;52.078;-0.058;2023-07-31T06:15:53;100173.71;;;20.09;93.36
56070;BME280;41944;52.078;-0.058;2023-07-31T06:18:20;100169.77;;;20.06;93.14
56070;BME280;41944;52.078;-0.058;2023-07-31T06:20:47;100169.83;;;20.23;92.52
56070;BME280;41944;52.078;-0.058;2023-07-31T06:23:13;100175.20;;;20.40;91.97
56070;BME280;41944;52.078;-0.058;2023-07-31T06:25:40;100177.27;;;20.49;92.09
56070;BME280;41944;52.078;-0.058;2023-07-31T06:28:07;100176.08;;;20.72;91.34
56070;BME280;41944;52.078;-0.058;2023-07-31T06:30:34;100175.07;;;20.83;90.12
56070;BME280;41944;52.078;-0.058;2023-07-31T06:33:01;100168.44;;;20.93;87.82
56070;BME280;41944;52.078;-0.058;2023-07-31T06:35:28;100161.93;;;20.99;88.21
56070;BME280;41944;52.078;-0.058;2023-07-31T06:37:55;100162.17;;;21.01;87.16
56070;BME280;41944;52.078;-0.058;2023-07-31T06:40:22;100161.28;;;20.96;86.86
56070;BME280;41944;52.078;-0.058;2023-07-31T06:42:49;100159.04;;;20.92;87.06
56070;BME280;41944;52.078;-0.058;2023-07-31T06:45:16;100164.88;;;20.85;87.60
56070;BME280;41944;52.078;-0.058;2023-07-31T06:47:43;100161.68;;;20.86;87.44
56070;BME280;41944;52.078;-0.058;2023-07-31T06:50:09;100156.89;;;20.82;87.82
56070;BME280;41944;52.078;-0.058;2023-07-31T06:52:36;100157.17;;;20.80;88.47
56070;BME280;41944;52.078;-0.058;2023-07-31T06:55:17;100148.94;;;20.89;87.68
56070;BME280;41944;52.078;-0.058;2023-07-31T06:57:44;100143.66;;;20.95;88.06
56070;BME280;41944;52.078;-0.058;2023-07-31T07:00:11;100138.37;;;20.89;88.06
56070;BME280;41944;52.078;-0.058;2023-07-31T07:02:38;100131.89;;;20.97;87.39
56070;BME280;41944;52.078;-0.058;2023-07-31T07:05:06;100126.01;;;20.99;86.62
56070;BME280;41944;52.078;-0.058;2023-07-31T07:07:34;100126.65;;;21.04;85.05
56070;BME280;41944;52.078;-0.058;2023-07-31T07:10:01;100125.52;;;21.04;86.08
56070;BME280;41944;52.078;-0.058;2023-07-31T07:12:30;100120.30;;;21.14;84.39
56070;BME280;41944;52.078;-0.058;2023-07-31T07:14:57;100119.32;;;21.17;83.74
56070;BME280;41944;52.078;-0.058;2023-07-31T07:17:25;100123.60;;;21.14;82.40
56070;BME280;41944;52.078;-0.058;2023-07-31T07:19:52;100123.09;;;21.17;82.24
56070;BME280;41944;52.078;-0.058;2023-07-31T07:22:19;100121.88;;;21.18;82.17
56070;BME280;41944;52.078;-0.058;2023-07-31T07:24:46;100120.71;;;21.14;80.98
56070;BME280;41944;52.078;-0.058;2023-07-31T07:27:13;100127.91;;;21.04;81.84
56070;BME280;41944;52.078;-0.058;2023-07-31T07:29:40;100133.08;;;21.17;81.28
56070;BME280;41944;52.078;-0.058;2023-07-31T07:32:08;100142.30;;;21.08;81.50
56070;BME280;41944;52.078;-0.058;2023-07-31T07:34:35;100141.49;;;21.03;81.67
56070;BME280;41944;52.078;-0.058;2023-07-31T07:37:02;100146.08;;;21.11;81.42
56070;BME280;41944;52.078;-0.058;2023-07-31T07:39:29;100147.56;;;21.12;80.95
56070;BME280;41944;52.078;-0.058;2023-07-31T07:41:56;100148.91;;;21.14;80.93
56070;BME280;41944;52.078;-0.058;2023-07-31T07:44:23;100146.58;;;21.07;82.18
56070;BME280;41944;52.078;-0.058;2023-07-31T07:46:50;100138.08;;;21.14;82.05
56070;BME280;41944;52.078;-0.058;2023-07-31T07:49:17;100125.53;;;21.24;80.89
56070;BME280;41944;52.078;-0.058;2023-07-31T07:51:44;100126.10;;;21.34;80.19
56070;BME280;41944;52.078;-0.058;2023-07-31T07:54:11;100125.70;;;21.25;81.27
56070;BME280;41944;52.078;-0.058;2023-07-31T07:56:38;100130.45;;;21.34;80.23
56070;BME280;41944;52.078;-0.058;2023-07-31T07:59:05;100133.10;;;21.41;79.00
56070;BME280;41944;52.078;-0.058;2023-07-31T08:01:32;100137.41;;;21.35;78.91
56070;BME280;41944;52.078;-0.058;2023-07-31T08:03:59;100127.47;;;21.35;78.03
56070;BME280;41944;52.078;-0.058;2023-07-31T08:06:27;100120.66;;;21.47;77.45
56070;BME280;41944;52.078;-0.058;2023-07-31T08:08:54;100121.53;;;21.57;77.61
56070;BME280;41944;52.078;-0.058;2023-07-31T08:11:21;100119.74;;;21.54;78.99
56070;BME280;41944;52.078;-0.058;2023-07-31T08:13:48;100117.16;;;21.75;78.11
56070;BME280;41944;52.078;-0.058;2023-07-31T08:16:15;100105.67;;;21.86;78.00
56070;BME280;41944;52.078;-0.058;2023-07-31T08:18:43;100106.78;;;21.88;78.29
56070;BME280;41944;52.078;-0.058;2023-07-31T08:21:10;100106.61;;;22.00;77.39
56070;BME280;41944;52.078;-0.058;2023-07-31T08:23:36;100110.32;;;21.99;77.37
56070;BME280;41944;52.078;-0.058;2023-07-31T08:26:03;100113.94;;;21.82;78.36
56070;BME280;41944;52.078;-0.058;2023-07-31T08:28:30;100107.49;;;21.82;78.45
56070;BME280;41944;52.078;-0.058;2023-07-31T08:30:57;100108.49;;;21.79;78.46
56070;BME280;41944;52.078;-0.058;2023-07-31T08:33:24;100101.78;;;21.68;79.06
56070;BME280;41944;52.078;-0.058;2023-07-31T08:35:52;100109.59;;;21.67;79.05
56070;BME280;41944;52.078;-0.058;2023-07-31T08:38:19;100128.04;;;21.75;78.03
56070;BME280;41944;52.078;-0.058;2023-07-31T08:40:46;100134.97;;;21.72;77.61
56070;BME280;41944;52.078;-0.058;2023-07-31T08:43:13;100132.27;;;21.71;78.15
56070;BME280;41944;52.078;-0.058;2023-07-31T08:45:42;100135.51;;;21.62;78.98
56070;BME280;41944;52.078;-0.058;2023-07-31T08:48:10;100117.34;;;21.73;78.64
56070;BME280;41944;52.078;-0.058;2023-07-31T08:50:38;100112.73;;;21.70;79.26
56070;BME280;41944;52.078;-0.058;2023-07-31T08:53:05;100107.32;;;21.74;78.55
56070;BME280;41944;52.078;-0.058;2023-07-31T08:55:32;100110.92;;;21.89;77.97
56070;BME280;41944;52.078;-0.058;2023-07-31T08:58:00;100106.08;;;22.05;77.77
56070;BME280;41944;52.078;-0.058;2023-07-31T09:00:29;100110.31;;;21.85;78.61
56070;BME280;41944;52.078;-0.058;2023-07-31T09:03:01;100111.45;;;22.06;77.61
56070;BME280;41944;52.078;-0.058;2023-07-31T09:05:31;100126.39;;;22.04;77.96
56070;BME280;41944;52.078;-0.058;2023-07-31T09:07:58;100134.64;;;22.02;78.16
56070;BME280;41944;52.078;-0.058;2023-07-31T09:10:26;100144.16;;;22.04;77.14
56070;BME280;41944;52.078;-0.058;2023-07-31T09:12:53;100137.38;;;22.13;76.45
56070;BME280;41944;52.078;-0.058;2023-07-31T09:15:22;100137.35;;;22.12;75.49
56070;BME280;41944;52.078;-0.058;2023-07-31T09:17:59;100126.28;;;22.03;75.75
56070;BME280;41944;52.078;-0.058;2023-07-31T09:20:27;100116.92;;;22.14;75.70
56070;BME280;41944;52.078;-0.058;2023-07-31T09:22:55;100105.76;;;22.21;75.64
56070;BME280;41944;52.078;-0.058;2023-07-31T09:25:23;100099.85;;;22.30;75.16
56070;BME280;41944;52.078;-0.058;2023-07-31T09:27:53;100097.33;;;22.40;73.65
56070;BME280;41944;52.078;-0.058;2023-07-31T09:30:21;100097.10;;;22.37;74.26
56070;BME280;41944;52.078;-0.058;2023-07-31T09:32:49;100085.21;;;22.43;74.86
56070;BME280;41944;52.078;-0.058;2023-07-31T09:35:20;100084.83;;;22.65;72.98
56070;BME280;41944;52.078;-0.058;2023-07-31T09:37:50;100088.56;;;22.69;73.30
56070;BME280;41944;52.078;-0.058;2023-07-31T09:40:26;100083.30;;;22.87;72.74
56070;BME280;41944;52.078;-0.058;2023-07-31T09:42:55;100084.26;;;22.89;70.18
56070;BME280;41944;52.078;-0.058;2023-07-31T09:45:23;100081.97;;;22.89;70.05
56070;BME280;41944;52.078;-0.058;2023-07-31T09:47:50;100073.67;;;22.84;69.89
56070;BME280;41944;52.078;-0.058;2023-07-31T09:50:20;100076.29;;;22.77;70.04
56070;BME280;41944;52.078;-0.058;2023-07-31T09:52:47;100076.73;;;22.83;70.87
56070;BME280;41944;52.078;-0.058;2023-07-31T09:55:14;100084.55;;;22.91;70.67
56070;BME280;41944;52.078;-0.058;2023-07-31T09:57:44;100068.62;;;23.01;69.77
56070;BME280;41944;52.078;-0.058;2023-07-31T10:00:15;100063.76;;;23.20;69.14
56070;BME280;41944;52.078;-0.058;2023-07-31T10:02:45;100064.06;;;23.29;68.61
56070;BME280;41944;52.078;-0.058;2023-07-31T10:05:14;100071.78;;;23.61;68.31
56070;BME280;41944;52.078;-0.058;2023-07-31T10:07:45;100076.40;;;23.75;67.02
56070;BME280;41944;52.078;-0.058;2023-07-31T10:10:20;100083.89;;;23.87;66.27
56070;BME280;41944;52.078;-0.058;2023-07-31T10:12:48;100081.71;;;23.92;66.91
56070;BME280;41944;52.078;-0.058;2023-07-31T10:15:16;100077.50;;;23.87;65.98
56070;BME280;41944;52.078;-0.058;2023-07-31T10:17:45;100078.82;;;24.05;65.88
56070;BME280;41944;52.078;-0.058;2023-07-31T10:20:14;100079.39;;;24.06;65.30
56070;BME280;41944;52.078;-0.058;2023-07-31T10:22:41;100089.02;;;23.95;65.65
56070;BME280;41944;52.078;-0.058;2023-07-31T10:25:09;100090.65;;;23.93;64.88
56070;BME280;41944;52.078;-0.058;2023-07-31T10:27:38;100080.62;;;23.95;65.85
56070;BME280;41944;52.078;-0.058;2023-07-31T10:30:11;100082.07;;;24.04;65.22
56070;BME280;41944;52.078;-0.058;2023-07-31T10:32:41;100074.98;;;24.16;64.70
56070;BME280;41944;52.078;-0.058;2023-07-31T10:35:09;100071.11;;;24.20;65.20
56070;BME280;41944;52.078;-0.058;2023-07-31T10:37:37;100069.94;;;24.36;63.21
56070;BME280;41944;52.078;-0.058;2023-07-31T10:40:11;100073.55;;;24.39;62.67
56070;BME280;41944;52.078;-0.058;2023-07-31T10:42:46;100081.44;;;24.29;63.48
56070;BME280;41944;52.078;-0.058;2023-07-31T10:45:13;100074.42;;;24.09;64.06
56070;BME280;41944;52.078;-0.058;2023-07-31T10:47:43;100065.08;;;24.04;64.42
56070;BME280;41944;52.078;-0.058;2023-07-31T10:50:13;100058.68;;;24.13;63.91
56070;BME280;41944;52.078;-0.058;2023-07-31T10:52:40;100040.18;;;24.34;63.49
56070;BME280;41944;52.078;-0.058;2023-07-31T10:55:29;100042.06;;;24.45;63.04
56070;BME280;41944;52.078;-0.058;2023-07-31T10:58:04;100051.28;;;24.26;64.11
56070;BME280;41944;52.078;-0.058;2023-07-31T11:00:32;100062.85;;;24.30;63.37
56070;BME280;41944;52.078;-0.058;2023-07-31T11:03:02;100064.48;;;24.29;63.41
56070;BME280;41944;52.078;-0.058;2023-07-31T11:06:02;100070.84;;;24.00;63.30
56070;BME280;41944;52.078;-0.058;2023-07-31T11:08:30;100078.69;;;23.83;63.86
56070;BME280;41944;52.078;-0.058;2023-07-31T11:11:08;100085.60;;;23.66;63.74
56070;BME280;41944;52.078;-0.058;2023-07-31T11:13:41;100076.48;;;23.51;64.23
56070;BME280;41944;52.078;-0.058;2023-07-31T11:16:09;100071.69;;;23.51;63.94
56070;BME280;41944;52.078;-0.058;2023-07-31T11:18:39;100059.49;;;23.31;64.34
56070;BME280;41944;52.078;-0.058;2023-07-31T11:21:06;100043.27;;;23.33;65.25
56070;BME280;41944;52.078;-0.058;2023-07-31T11:23:33;100022.99;;;23.38;64.99
56070;BME280;41944;52.078;-0.058;2023-07-31T11:26:00;100025.24;;;23.42;65.66
56070;BME280;41944;52.078;-0.058;2023-07-31T11:28:31;100029.95;;;23.54;65.04
56070;BME280;41944;52.078;-0.058;2023-07-31T11:31:00;100049.51;;;23.67;64.69
56070;BME280;41944;52.078;-0.058;2023-07-31T11:33:27;100047.74;;;23.69;65.21
56070;BME280;41944;52.078;-0.058;2023-07-31T11:35:56;100053.44;;;23.64;64.71
56070;BME280;41944;52.078;-0.058;2023-07-31T11:38:24;100057.57;;;23.55;63.64
56070;BME280;41944;52.078;-0.058;2023-07-31T11:40:53;100047.60;;;23.54;64.73
56070;BME280;41944;52.078;-0.058;2023-07-31T11:43:20;100051.02;;;23.42;65.09
56070;BME280;41944;52.078;-0.058;2023-07-31T11:45:48;100066.79;;;23.44;64.76
56070;BME280;41944;52.078;-0.058;2023-07-31T11:48:21;100066.56;;;23.25;65.80
56070;BME280;41944;52.078;-0.058;2023-07-31T11:50:50;100058.97;;;23.31;65.27
56070;BME280;41944;52.078;-0.058;2023-07-31T11:53:22;100067.11;;;23.29;65.34
56070;BME280;41944;52.078;-0.058;2023-07-31T11:55:50;100060.55;;;23.18;64.35
56070;BME280;41944;52.078;-0.058;2023-07-31T11:58:18;100065.35;;;23.05;63.96
56070;BME280;41944;52.078;-0.058;2023-07-31T12:00:46;100058.36;;;22.95;64.30
56070;BME280;41944;52.078;-0.058;2023-07-31T12:03:13;100060.88;;;22.95;63.98
56070;BME280;41944;52.078;-0.058;2023-07-31T12:05:41;100058.46;;;22.97;64.21
56070;BME280;41944;52.078;-0.058;2023-07-31T12:08:10;100068.19;;;23.11;64.14
56070;BME280;41944;52.078;-0.058;2023-07-31T12:10:38;100071.50;;;23.15;63.77
56070;BME280;41944;52.078;-0.058;2023-07-31T12:13:07;100070.21;;;23.18;61.08
56070;BME280;41944;52.078;-0.058;2023-07-31T12:15:37;100067.99;;;23.18;60.98
56070;BME280;41944;52.078;-0.058;2023-07-31T12:18:05;100067.14;;;23.17;60.35
56070;BME280;41944;52.078;-0.058;2023-07-31T12:20:33;100059.38;;;23.15;59.38
56070;BME280;41944;52.078;-0.058;2023-07-31T12:23:01;100042.74;;;23.07;59.07
56070;BME280;41944;52.078;-0.058;2023-07-31T12:25:31;100041.21;;;22.96;59.56
56070;BME280;41944;52.078;-0.058;2023-07-31T12:28:04;100023.71;;;22.83;60.10
56070;BME280;41944;52.078;-0.058;2023-07-31T12:30:33;100017.51;;;22.76;61.39
56070;BME280;41944;52.078;-0.058;2023-07-31T12:33:03;100008.78;;;22.69;60.02
56070;BME280;41944;52.078;-0.058;2023-07-31T12:35:35;100003.14;;;22.64;61.00
56070;BME280;41944;52.078;-0.058;2023-07-31T12:38:03;100009.50;;;22.63;59.96
56070;BME280;41944;52.078;-0.058;2023-07-31T12:40:30;100009.51;;;22.59;60.88
56070;BME280;41944;52.078;-0.058;2023-07-31T12:42:57;100015.77;;;22.54;60.68